Accueil
METAR-TAF:

METAR-TAF

Aéroports :

Aéroport international José-Martí

La Havane, Cuba

latitude: 22-59N, longitude: 082-24W, altitude: 59 m

Observation

Le bulletin a été fait il y a 34 minutes, à 05:55 UTC
Vent 2 kt de sud-ouest
Température 22°C
Humidité 100%
Pression 1015 hPa
Visibilité: 9000 m
Quelques nuages à une hauteur de 4000 ft

METAR: MUHA 210555Z 22002KT 9000 FEW040 22/22 Q1015

Heure: 02:29 (06:29 UTC)

Prévision

Le bulletin a été fait il y a 1 heure et 29 minutes, à 05:00 UTC
Prévision valable du 21 à 06 UTC au 22 à 06 UTC
Vent 6 kt de sud
Visibilité: 9000 m
Quelques nuages à une hauteur de 4000 ft
Temporairement
du 21 à 09 UTC au 21 à 12 UTC
Visibilité: 3000 m
Partiellement couvert par le brouillard

TAF: MUHA 210500Z 2106/2206 18006KT 9000 FEW040 TEMPO 2109/2112 3000 PRFG

Observations et prévisions météorologiques de plus de 4000 aéroports (messages METAR et TAF).

Les stations disponibles sont représentées par des disques jaunes et rouges sur la carte.

Passer la souris dessus pour voir le nom de la station.

Cliquer dessus pour voir les observations et prévisions météorologiques.

Pour changer de carte: cliquez sur les boutons verts avec une croix noire pour zoomer, sur le bouton vert avec un tiret pour effectuer un zoom arrière, ou sur les flèches vertes pour les cartes adjacentes.


METAR-TAF: